createdAt,value
2022-12-15T06:04:37.551Z,-7.37
2022-12-15T06:07:04.202Z,-7.36
2022-12-15T06:09:31.434Z,-7.34
2022-12-15T06:11:58.058Z,-7.33
2022-12-15T06:14:25.228Z,-7.33
2022-12-15T06:16:51.920Z,-7.30
2022-12-15T06:19:20.156Z,-7.29
2022-12-15T06:21:48.285Z,-7.31
2022-12-15T06:24:15.690Z,-7.32
2022-12-15T06:26:42.274Z,-7.31
2022-12-15T06:29:12.452Z,-7.31
2022-12-15T06:31:40.342Z,-7.28
2022-12-15T06:34:11.271Z,-7.27
2022-12-15T06:36:38.964Z,-7.28
2022-12-15T06:39:09.249Z,-7.28
2022-12-15T06:41:36.464Z,-7.26
2022-12-15T06:44:03.097Z,-7.25
2022-12-15T06:46:31.752Z,-7.24
2022-12-15T06:48:59.815Z,-7.23
2022-12-15T06:51:28.988Z,-7.20
2022-12-15T06:53:56.264Z,-7.20
2022-12-15T06:56:34.069Z,-7.20
2022-12-15T06:59:03.735Z,-7.21
2022-12-15T07:01:30.825Z,-7.22
2022-12-15T07:04:03.497Z,-7.20
2022-12-15T07:06:37.278Z,-7.17
2022-12-15T07:09:07.662Z,-7.13
2022-12-15T07:11:34.469Z,-7.12
2022-12-15T07:14:01.618Z,-7.10
2022-12-15T07:16:28.262Z,-7.08
2022-12-15T07:18:55.449Z,-7.03
2022-12-15T07:21:22.411Z,-7.00
2022-12-15T07:23:57.478Z,-6.97
2022-12-15T07:26:25.306Z,-6.94
2022-12-15T07:28:54.108Z,-6.94
2022-12-15T07:31:22.508Z,-6.93
2022-12-15T07:33:49.886Z,-6.89
2022-12-15T07:36:16.456Z,-6.86
2022-12-15T07:38:50.381Z,-6.86
2022-12-15T07:41:18.439Z,-6.86
2022-12-15T07:43:46.708Z,-6.83
2022-12-15T07:46:13.406Z,-6.81
2022-12-15T07:48:40.324Z,-6.80
2022-12-15T07:51:15.222Z,-6.80
2022-12-15T07:53:46.695Z,-6.78
2022-12-15T07:56:14.212Z,-6.77
2022-12-15T07:58:40.787Z,-6.73
2022-12-15T08:01:11.201Z,-6.70
2022-12-15T08:03:39.632Z,-6.66
2022-12-15T08:06:10.434Z,-6.63
2022-12-15T08:08:37.286Z,-6.61
2022-12-15T08:11:05.886Z,-6.56
2022-12-15T08:16:24.153Z,-6.46
2022-12-15T08:18:50.957Z,-6.41
2022-12-15T08:21:18.197Z,-6.38
2022-12-15T08:23:45.043Z,-6.32
2022-12-15T08:26:15.324Z,-6.25
2022-12-15T08:28:42.955Z,-6.18
2022-12-15T08:31:13.961Z,-6.08
2022-12-15T08:33:42.555Z,-5.98
2022-12-15T08:36:12.028Z,-5.91
2022-12-15T08:38:40.652Z,-5.82
2022-12-15T08:41:23.399Z,-5.72
2022-12-15T08:43:51.758Z,-5.67
2022-12-15T08:46:24.575Z,-5.62
2022-12-15T08:48:53.186Z,-5.57
2022-12-15T08:51:20.843Z,-5.51
2022-12-15T08:53:48.925Z,-5.46
2022-12-15T08:56:19.349Z,-5.41
2022-12-15T08:58:46.867Z,-5.38
2022-12-15T09:01:22.425Z,-5.34
2022-12-15T09:03:52.744Z,-5.26
2022-12-15T09:06:33.561Z,-5.22
2022-12-15T09:09:04.062Z,-5.17
2022-12-15T09:11:31.619Z,-5.14
2022-12-15T09:13:58.792Z,-5.04
2022-12-15T09:16:26.323Z,-4.99
2022-12-15T09:18:56.116Z,-4.94
2022-12-15T09:21:26.020Z,-4.85
2022-12-15T09:23:55.636Z,-4.76
2022-12-15T09:26:23.726Z,-4.67
2022-12-15T09:28:51.280Z,-4.60
2022-12-15T09:31:25.031Z,-4.53
2022-12-15T09:33:54.238Z,-4.46
2022-12-15T09:36:22.328Z,-4.38
2022-12-15T09:38:50.177Z,-4.30
2022-12-15T09:41:27.077Z,-4.22
2022-12-15T09:44:01.618Z,-4.17
2022-12-15T09:46:31.199Z,-4.07
2022-12-15T09:49:03.226Z,-3.98
2022-12-15T09:51:36.263Z,-3.90
2022-12-15T09:54:04.157Z,-3.82
2022-12-15T09:56:56.545Z,-3.72
2022-12-15T09:59:51.485Z,-3.64
2022-12-15T10:02:49.771Z,-3.60
2022-12-15T10:06:06.824Z,-3.55
2022-12-15T10:08:23.723Z,-3.48
2022-12-15T10:10:55.968Z,-3.44
2022-12-15T10:13:34.317Z,-3.34
2022-12-15T10:16:09.164Z,-3.23
2022-12-15T10:18:46.885Z,-3.14
2022-12-15T10:21:17.622Z,-3.09
2022-12-15T10:23:44.208Z,-3.02
2022-12-15T10:26:32.101Z,-2.96
2022-12-15T10:29:16.998Z,-2.93
2022-12-15T10:32:00.574Z,-2.89
2022-12-15T10:34:29.903Z,-2.86
2022-12-15T10:36:57.903Z,-2.78
2022-12-15T10:39:46.160Z,-2.72
2022-12-15T10:42:25.164Z,-2.67
2022-12-15T10:44:55.491Z,-2.60
2022-12-15T10:47:26.185Z,-2.52
2022-12-15T10:49:54.882Z,-2.49
2022-12-15T10:52:27.256Z,-2.46
2022-12-15T10:54:55.588Z,-2.52
2022-12-15T10:57:23.762Z,-2.58
2022-12-15T10:59:51.326Z,-2.54
2022-12-15T11:02:26.152Z,-2.52
2022-12-15T11:05:06.519Z,-2.49
2022-12-15T11:07:37.423Z,-2.42
2022-12-15T11:10:20.376Z,-2.43
2022-12-15T11:13:19.113Z,-2.34
2022-12-15T11:15:50.525Z,-2.23
2022-12-15T11:18:38.653Z,-2.16
2022-12-15T11:21:21.867Z,-2.13
2022-12-15T11:23:59.455Z,-2.11
2022-12-15T11:26:45.520Z,-2.15
2022-12-15T11:29:17.916Z,-2.19
2022-12-15T11:31:45.838Z,-2.12
2022-12-15T11:34:18.464Z,-2.09
2022-12-15T11:37:18.314Z,-1.98
2022-12-15T11:40:12.267Z,-1.89
2022-12-15T11:42:55.388Z,-1.88
2022-12-15T11:45:47.024Z,-1.88
2022-12-15T11:48:19.426Z,-1.81
2022-12-15T11:51:06.443Z,-1.77
2022-12-15T11:54:00.964Z,-1.71
2022-12-15T11:56:34.104Z,-1.67
2022-12-15T11:59:18.866Z,-1.61
2022-12-15T12:01:54.020Z,-1.62
2022-12-15T12:04:30.508Z,-1.63
2022-12-15T12:07:19.079Z,-1.60
2022-12-15T12:09:58.111Z,-1.54
2022-12-15T12:13:04.645Z,-1.48
2022-12-15T12:15:31.783Z,-1.43
2022-12-15T12:18:17.289Z,-1.42
2022-12-15T12:20:50.293Z,-1.45
2022-12-15T12:23:22.219Z,-1.37
2022-12-15T12:26:03.297Z,-1.37
2022-12-15T12:28:54.356Z,-1.35
2022-12-15T12:31:56.483Z,-1.49
2022-12-15T12:34:33.211Z,-1.51
2022-12-15T12:37:32.459Z,-1.50
2022-12-15T12:40:07.858Z,-1.45
2022-12-15T12:42:40.719Z,-1.40
2022-12-15T12:45:12.644Z,-1.37
2022-12-15T12:47:44.489Z,-1.39
2022-12-15T12:50:16.892Z,-1.48
2022-12-15T12:52:51.078Z,-1.43
2022-12-15T12:55:30.232Z,-1.39
2022-12-15T12:57:56.876Z,-1.41
2022-12-15T13:00:27.563Z,-1.42
2022-12-15T13:03:23.204Z,-1.50
2022-12-15T13:05:51.910Z,-1.44
2022-12-15T13:08:27.999Z,-1.45
2022-12-15T13:10:56.622Z,-1.38
2022-12-15T13:13:29.504Z,-1.34
2022-12-15T13:16:37.173Z,-1.29
2022-12-15T13:19:08.431Z,-1.32
2022-12-15T13:21:41.805Z,-1.34
2022-12-15T13:24:34.030Z,-1.36
2022-12-15T13:27:10.158Z,-1.33
2022-12-15T13:29:54.943Z,-1.36
2022-12-15T13:32:45.063Z,-1.33
2022-12-15T13:35:12.667Z,-1.34
2022-12-15T13:38:02.779Z,-1.26
2022-12-15T13:40:56.774Z,-1.24
2022-12-15T13:43:26.466Z,-1.27
2022-12-15T13:46:00.659Z,-1.29
2022-12-15T13:48:32.618Z,-1.33
2022-12-15T13:51:21.728Z,-1.36
2022-12-15T13:53:56.529Z,-1.41
2022-12-15T13:56:51.929Z,-1.38
2022-12-15T13:59:44.831Z,-1.46
2022-12-15T14:02:33.055Z,-1.53
2022-12-15T14:05:12.374Z,-1.57
2022-12-15T14:07:40.993Z,-1.52
2022-12-15T14:10:18.380Z,-1.53
2022-12-15T14:12:46.677Z,-1.56
2022-12-15T14:15:18.238Z,-1.61
2022-12-15T14:17:52.952Z,-1.64
2022-12-15T14:20:23.237Z,-1.67
2022-12-15T14:22:52.296Z,-1.71
2022-12-15T14:25:31.309Z,-1.77
2022-12-15T14:27:57.887Z,-1.79
2022-12-15T14:30:33.557Z,-1.83
2022-12-15T14:33:18.560Z,-1.86
2022-12-15T14:35:51.771Z,-1.87
2022-12-15T14:38:24.012Z,-1.89
2022-12-15T14:40:54.638Z,-1.95
2022-12-15T14:43:41.406Z,-2.00
2022-12-15T14:46:16.978Z,-2.07
2022-12-15T14:48:51.176Z,-2.08
2022-12-15T14:51:18.715Z,-2.10
2022-12-15T14:53:49.823Z,-2.12
2022-12-15T14:56:24.177Z,-2.15
2022-12-15T14:59:05.796Z,-2.22
2022-12-15T15:01:57.940Z,-2.31
2022-12-15T15:04:31.161Z,-2.38
2022-12-15T15:07:01.383Z,-2.43
2022-12-15T15:09:31.995Z,-2.50
2022-12-15T15:12:09.699Z,-2.57
2022-12-15T15:14:54.758Z,-2.65
2022-12-15T15:17:37.864Z,-2.70
2022-12-15T15:20:38.726Z,-2.75
2022-12-15T15:23:08.667Z,-2.78
2022-12-15T15:25:41.129Z,-2.80
2022-12-15T15:28:14.979Z,-2.87
2022-12-15T15:30:51.805Z,-2.96
2022-12-15T15:33:25.396Z,-3.03
2022-12-15T15:35:55.623Z,-3.09
2022-12-15T15:38:54.495Z,-3.14
2022-12-15T15:41:32.386Z,-3.21
2022-12-15T15:44:01.544Z,-3.24
2022-12-15T15:46:31.293Z,-3.30
2022-12-15T15:49:00.724Z,-3.34
2022-12-15T15:51:28.614Z,-3.39
2022-12-15T15:53:59.839Z,-3.42
2022-12-15T15:56:28.563Z,-3.44
2022-12-15T15:58:55.122Z,-3.47
2022-12-15T16:01:22.030Z,-3.48
2022-12-15T16:03:50.087Z,-3.50
2022-12-15T16:06:19.453Z,-3.53
2022-12-15T16:08:49.921Z,-3.56
2022-12-15T16:11:16.775Z,-3.61
2022-12-15T16:13:45.027Z,-3.63
2022-12-15T16:16:24.308Z,-3.66
2022-12-15T16:18:51.510Z,-3.69
2022-12-15T16:21:19.816Z,-3.71
2022-12-15T16:23:48.966Z,-3.75
2022-12-15T16:26:21.130Z,-3.78
2022-12-15T16:28:48.460Z,-3.83
2022-12-15T16:31:24.531Z,-3.85
2022-12-15T16:33:51.833Z,-3.85
2022-12-15T16:36:18.457Z,-3.87
2022-12-15T16:38:45.599Z,-3.89
2022-12-15T16:41:16.817Z,-3.91
2022-12-15T16:43:48.124Z,-3.96
2022-12-15T16:46:15.775Z,-3.96
2022-12-15T16:48:43.605Z,-3.98
2022-12-15T16:51:37.441Z,-3.98
2022-12-15T16:54:05.241Z,-4.02
2022-12-15T16:56:32.308Z,-4.09
2022-12-15T16:59:30.960Z,-4.12
2022-12-15T17:01:46.549Z,-4.18
2022-12-15T17:04:14.284Z,-4.22
2022-12-15T17:06:40.904Z,-4.23
2022-12-15T17:09:09.102Z,-4.25
2022-12-15T17:11:35.812Z,-4.28
2022-12-15T17:14:03.225Z,-4.31
2022-12-15T17:16:29.914Z,-4.33
2022-12-15T17:18:56.914Z,-4.37
2022-12-15T17:21:33.897Z,-4.40
2022-12-15T17:24:06.329Z,-4.44
2022-12-15T17:26:36.226Z,-4.47
2022-12-15T17:29:18.429Z,-4.51
2022-12-15T17:31:45.083Z,-4.53
2022-12-15T17:34:33.494Z,-4.57
2022-12-15T17:37:06.791Z,-4.60
2022-12-15T17:39:35.084Z,-4.64
2022-12-15T17:42:03.086Z,-4.67
2022-12-15T17:44:35.731Z,-4.70
2022-12-15T17:47:05.942Z,-4.74
2022-12-15T17:49:36.059Z,-4.75
2022-12-15T17:52:22.007Z,-4.75
2022-12-15T17:54:48.912Z,-4.78
2022-12-15T17:57:15.824Z,-4.80
2022-12-15T17:59:42.837Z,-4.83
2022-12-15T18:02:14.210Z,-4.86
2022-12-15T18:04:42.360Z,-4.88
2022-12-15T18:07:16.651Z,-4.91
2022-12-15T18:09:43.245Z,-4.93
2022-12-15T18:12:19.849Z,-4.95
2022-12-15T18:14:46.799Z,-4.97
2022-12-15T18:17:14.509Z,-4.98
2022-12-15T18:19:41.122Z,-5.03
2022-12-15T18:22:15.437Z,-5.07
2022-12-15T18:24:42.167Z,-5.08
2022-12-15T18:27:28.220Z,-5.11
2022-12-15T18:29:56.346Z,-5.13
2022-12-15T18:32:26.149Z,-5.13
2022-12-15T18:34:53.798Z,-5.14
2022-12-15T18:37:23.505Z,-5.17
2022-12-15T18:39:50.860Z,-5.20
2022-12-15T18:42:20.423Z,-5.20
2022-12-15T18:44:49.543Z,-5.21
2022-12-15T18:47:21.985Z,-5.23
2022-12-15T18:49:48.989Z,-5.23
2022-12-15T18:52:27.587Z,-5.28
2022-12-15T18:54:55.380Z,-5.33
2022-12-15T18:57:41.058Z,-5.35
2022-12-15T19:00:19.065Z,-5.36
2022-12-15T19:02:46.585Z,-5.34
2022-12-15T19:05:28.647Z,-5.36
2022-12-15T19:08:11.120Z,-5.36
2022-12-15T19:10:42.639Z,-5.36
2022-12-15T19:13:14.474Z,-5.37
2022-12-15T19:15:41.575Z,-5.37
2022-12-15T19:18:32.575Z,-5.38
2022-12-15T19:21:18.345Z,-5.37
2022-12-15T19:23:45.621Z,-5.37
2022-12-15T19:26:12.462Z,-5.38
2022-12-15T19:28:39.620Z,-5.41
2022-12-15T19:31:07.998Z,-5.43
2022-12-15T19:33:35.599Z,-5.41
2022-12-15T19:36:02.903Z,-5.42
2022-12-15T19:38:32.713Z,-5.45
2022-12-15T19:41:00.182Z,-5.48
2022-12-15T19:43:27.649Z,-5.50
2022-12-15T19:45:54.361Z,-5.54
2022-12-15T19:48:23.620Z,-5.57
2022-12-15T19:50:51.885Z,-5.55
2022-12-15T19:53:26.354Z,-5.56
2022-12-15T19:55:55.202Z,-5.58
2022-12-15T19:58:31.261Z,-5.57
2022-12-15T20:01:02.563Z,-5.58
2022-12-15T20:03:31.324Z,-5.56
2022-12-15T20:05:59.753Z,-5.57
2022-12-15T20:08:33.009Z,-5.60
2022-12-15T20:11:00.083Z,-5.64
2022-12-15T20:13:26.916Z,-5.64
2022-12-15T20:15:54.507Z,-5.64
2022-12-15T20:18:21.905Z,-5.66
2022-12-15T20:20:49.511Z,-5.65
2022-12-15T20:23:26.592Z,-5.66
2022-12-15T20:25:54.240Z,-5.66
2022-12-15T20:28:30.521Z,-5.66
2022-12-15T20:30:58.115Z,-5.67
2022-12-15T20:33:25.454Z,-5.67
2022-12-15T20:35:52.389Z,-5.67
2022-12-15T20:38:39.779Z,-5.68
2022-12-15T20:41:07.366Z,-5.69
2022-12-15T20:43:35.893Z,-5.68
2022-12-15T20:46:12.311Z,-5.68
2022-12-15T20:48:39.648Z,-5.72
2022-12-15T20:51:09.855Z,-5.73
2022-12-15T20:53:38.342Z,-5.73
2022-12-15T20:56:06.083Z,-5.75
2022-12-15T20:58:43.413Z,-5.76
2022-12-15T21:01:22.545Z,-5.75
2022-12-15T21:03:52.075Z,-5.76
2022-12-15T21:06:19.547Z,-5.80
2022-12-15T21:08:47.066Z,-5.83
2022-12-15T21:11:22.451Z,-5.83
2022-12-15T21:13:50.188Z,-5.80
2022-12-15T21:16:21.576Z,-5.81
2022-12-15T21:21:39.713Z,-5.85
2022-12-15T21:24:24.730Z,-5.85
2022-12-15T21:26:51.976Z,-5.81
2022-12-15T21:29:22.715Z,-5.81
